createdAt,value
2022-10-17T00:04:28.627Z,3.93
2022-10-17T00:09:21.334Z,3.73
2022-10-17T00:14:14.423Z,3.67
2022-10-17T00:19:08.195Z,3.53
2022-10-17T00:24:02.183Z,4.17
2022-10-17T00:28:55.115Z,3.50
2022-10-17T00:33:48.245Z,3.67
2022-10-17T00:38:43.573Z,3.30
2022-10-17T00:44:04.408Z,6.03
2022-10-17T00:49:02.147Z,5.33
2022-10-17T00:53:55.002Z,5.17
2022-10-17T00:58:48.894Z,4.07
2022-10-17T01:03:42.508Z,4.13
2022-10-17T01:14:16.817Z,3.87
2022-10-17T01:19:27.761Z,3.53
2022-10-17T01:24:39.313Z,4.10
2022-10-17T01:29:47.998Z,4.30
2022-10-17T01:34:47.576Z,4.40
2022-10-17T01:39:48.544Z,3.83
2022-10-17T01:44:56.751Z,4.10
2022-10-17T01:49:57.235Z,3.83
2022-10-17T01:54:55.694Z,3.93
2022-10-17T01:59:51.889Z,4.40
2022-10-17T02:04:50.345Z,3.63
2022-10-17T02:09:43.207Z,5.00
2022-10-17T02:15:00.113Z,4.60
2022-10-17T02:20:29.819Z,4.77
2022-10-17T02:25:54.723Z,5.80
2022-10-17T02:31:02.895Z,5.07
2022-10-17T02:36:00.412Z,6.47
2022-10-17T02:40:54.685Z,7.27
2022-10-17T02:45:48.209Z,7.43
2022-10-17T02:50:43.448Z,8.60
2022-10-17T03:00:53.770Z,8.97
2022-10-17T03:05:46.513Z,9.93
2022-10-17T03:15:53.801Z,9.43
2022-10-17T03:20:46.753Z,14.07
2022-10-17T03:25:39.579Z,15.07
2022-10-17T03:30:32.640Z,14.43
2022-10-17T03:35:26.102Z,13.73
2022-10-17T03:40:18.963Z,12.10
2022-10-17T03:45:13.038Z,12.00
2022-10-17T03:50:06.182Z,14.43
2022-10-17T03:55:01.761Z,20.63
2022-10-17T03:59:55.268Z,23.47
2022-10-17T04:04:47.869Z,19.33
2022-10-17T04:09:41.161Z,18.67
2022-10-17T04:14:38.602Z,18.07
2022-10-17T04:19:31.143Z,22.03
2022-10-17T04:24:23.854Z,19.00
2022-10-17T04:29:36.409Z,21.27
2022-10-17T04:34:34.589Z,20.70
2022-10-17T04:39:27.390Z,21.33
2022-10-17T04:44:21.858Z,22.50
2022-10-17T04:49:17.784Z,19.60
2022-10-17T04:54:13.854Z,19.83
2022-10-17T04:59:09.033Z,19.50
2022-10-17T05:04:03.954Z,18.63
2022-10-17T05:09:24.679Z,20.80
2022-10-17T05:19:51.812Z,22.07
2022-10-17T05:24:58.363Z,21.23
2022-10-17T05:30:04.347Z,22.50
2022-10-17T05:59:23.333Z,26.00
2022-10-17T06:10:03.239Z,29.27
2022-10-17T06:15:00.681Z,34.33
2022-10-17T06:19:58.461Z,28.93
2022-10-17T06:24:52.869Z,31.60
2022-10-17T06:29:45.916Z,31.63
2022-10-17T06:34:38.906Z,32.17
2022-10-17T06:39:34.082Z,34.40
2022-10-17T06:45:07.507Z,36.60
2022-10-17T06:50:26.660Z,35.60
2022-10-17T06:55:36.563Z,33.13
2022-10-17T07:00:51.192Z,33.73
2022-10-17T07:05:52.238Z,34.37
2022-10-17T07:10:47.181Z,33.57
2022-10-17T07:15:40.659Z,33.17
2022-10-17T07:20:36.209Z,27.10
2022-10-17T07:25:30.310Z,24.10
2022-10-17T07:30:26.909Z,25.17
2022-10-17T07:35:26.314Z,28.43
2022-10-17T07:40:19.019Z,26.70
2022-10-17T07:45:11.819Z,24.67
2022-10-17T07:50:06.212Z,24.60
2022-10-17T07:55:00.191Z,23.20
2022-10-17T07:59:54.336Z,24.17
2022-10-17T08:04:46.746Z,24.27
2022-10-17T08:09:39.262Z,26.43
2022-10-17T08:14:32.041Z,26.37
2022-10-17T08:19:24.584Z,24.07
2022-10-17T08:24:17.344Z,23.87
2022-10-17T08:29:17.417Z,23.00
2022-10-17T08:34:09.738Z,23.77
2022-10-17T08:39:02.983Z,25.07
2022-10-17T08:43:59.794Z,22.37
2022-10-17T08:48:52.886Z,21.50
2022-10-17T08:54:29.329Z,23.10
2022-10-17T08:59:29.187Z,22.77
2022-10-17T09:04:49.048Z,22.13
2022-10-17T09:15:10.940Z,22.20
2022-10-17T09:20:06.572Z,19.40
2022-10-17T09:25:08.970Z,20.37
2022-10-17T09:30:47.482Z,20.17
2022-10-17T09:35:42.114Z,19.07
2022-10-17T09:40:40.827Z,19.30
2022-10-17T09:45:38.152Z,20.13
2022-10-17T09:50:36.349Z,19.40
2022-10-17T09:55:34.960Z,18.17
2022-10-17T10:00:41.292Z,19.43
2022-10-17T10:05:34.143Z,18.77
2022-10-17T10:10:29.369Z,18.40
2022-10-17T10:15:35.806Z,18.87
2022-10-17T10:20:37.739Z,18.53
2022-10-17T10:25:30.056Z,16.30
2022-10-17T10:30:29.075Z,16.17
2022-10-17T10:35:32.479Z,15.75
2022-10-17T10:40:32.654Z,17.60
2022-10-17T10:45:52.831Z,15.98
2022-10-17T10:50:49.088Z,16.65
2022-10-17T13:49:44.454Z,19.10
2022-10-17T13:54:40.659Z,18.70
2022-10-17T13:59:40.183Z,19.17
2022-10-17T14:04:57.809Z,19.07
2022-10-17T14:09:47.335Z,20.30
2022-10-17T14:15:08.678Z,20.20
2022-10-17T14:20:16.137Z,19.73
2022-10-17T14:25:32.653Z,20.93
2022-10-17T14:35:42.647Z,20.53
2022-10-17T14:40:35.757Z,21.50
2022-10-17T14:45:34.206Z,21.17
2022-10-17T14:50:29.583Z,21.27
2022-10-17T14:55:29.562Z,22.73
2022-10-17T15:00:22.834Z,22.03
2022-10-17T15:05:15.904Z,22.87
2022-10-17T15:10:26.448Z,21.37
2022-10-17T15:15:19.044Z,23.50
2022-10-17T15:20:16.695Z,23.23
2022-10-17T15:25:09.661Z,22.40
2022-10-17T15:30:02.126Z,23.83
2022-10-17T15:34:54.739Z,23.40
2022-10-17T15:39:53.729Z,24.27
2022-10-17T15:44:51.027Z,24.93
2022-10-17T15:49:43.569Z,25.23
2022-10-17T15:54:36.091Z,25.33
2022-10-17T15:59:33.667Z,24.83
2022-10-17T16:04:27.820Z,25.00
2022-10-17T16:09:20.366Z,24.60
2022-10-17T16:14:18.368Z,25.50
2022-10-17T16:19:12.960Z,25.50
2022-10-17T16:24:07.303Z,26.83
2022-10-17T16:29:03.849Z,25.37
2022-10-17T16:33:58.510Z,26.10
2022-10-17T16:38:52.671Z,25.27
2022-10-17T16:43:45.411Z,27.00
2022-10-17T16:53:30.624Z,27.93
2022-10-17T16:58:33.244Z,28.27
2022-10-17T17:03:26.633Z,25.73
2022-10-17T17:08:19.317Z,26.80
2022-10-17T17:13:12.171Z,26.60
2022-10-17T17:18:06.156Z,27.73
2022-10-17T17:22:58.956Z,25.00
2022-10-17T17:27:52.063Z,26.37
2022-10-17T17:32:45.162Z,28.97
2022-10-17T17:37:37.812Z,28.23
2022-10-17T17:42:33.067Z,28.87
2022-10-17T17:47:37.278Z,28.33
2022-10-17T17:52:30.964Z,28.17
2022-10-17T17:57:26.590Z,29.33
2022-10-17T18:02:19.342Z,28.40
2022-10-17T18:12:50.377Z,30.33
2022-10-17T18:17:45.731Z,32.87
2022-10-17T18:27:52.169Z,31.33
2022-10-17T18:32:49.731Z,33.17
2022-10-17T18:37:45.425Z,33.60
2022-10-17T18:42:39.147Z,31.00
2022-10-17T18:47:33.987Z,30.73
2022-10-17T18:52:33.651Z,30.53
2022-10-17T18:57:31.108Z,30.57
2022-10-17T19:02:38.093Z,37.50
2022-10-17T19:07:41.177Z,29.63
2022-10-17T19:12:35.325Z,29.13
2022-10-17T19:17:35.958Z,31.43
2022-10-17T19:22:33.567Z,29.43
2022-10-17T19:27:33.610Z,33.00
2022-10-17T19:32:26.789Z,37.63
2022-10-17T19:37:26.922Z,37.93
2022-10-17T19:42:24.359Z,34.03
2022-10-17T19:47:17.331Z,38.60
2022-10-17T19:52:11.889Z,37.00
2022-10-17T19:57:09.589Z,38.33
2022-10-17T20:02:05.297Z,37.53
2022-10-17T20:07:04.127Z,31.90
2022-10-17T20:18:40.157Z,32.93
2022-10-17T20:42:02.201Z,33.10
2022-10-17T20:47:02.229Z,34.87
2022-10-17T20:57:45.992Z,33.37
2022-10-17T21:02:45.059Z,39.87
2022-10-17T21:07:38.953Z,33.43
2022-10-17T21:12:50.059Z,32.77
2022-10-17T21:17:51.573Z,33.47
2022-10-17T21:22:46.206Z,34.27
2022-10-17T21:27:40.879Z,29.80
2022-10-17T21:32:51.074Z,37.10
2022-10-17T21:37:44.348Z,38.73
2022-10-17T21:42:37.151Z,38.37
2022-10-17T21:47:30.039Z,38.67
2022-10-17T21:52:29.217Z,35.10
2022-10-17T21:57:21.992Z,51.80
2022-10-17T22:02:17.090Z,39.00
2022-10-17T22:07:13.179Z,42.20
2022-10-17T22:12:06.559Z,39.27
2022-10-17T22:16:59.166Z,38.57
2022-10-17T22:21:52.270Z,38.80
2022-10-17T22:31:53.267Z,35.80
2022-10-17T22:36:48.008Z,37.33
2022-10-17T22:41:40.418Z,36.33
2022-10-17T22:46:33.189Z,35.03
2022-10-17T22:51:25.974Z,37.97
2022-10-17T22:56:21.210Z,38.23
2022-10-17T23:01:16.649Z,39.00
2022-10-17T23:06:09.969Z,38.60
2022-10-17T23:11:02.947Z,37.13
2022-10-17T23:15:58.254Z,40.03
2022-10-17T23:20:51.421Z,34.70
2022-10-17T23:32:57.180Z,38.80
2022-10-17T23:37:51.523Z,35.37
2022-10-17T23:42:48.083Z,35.90
2022-10-17T23:47:40.583Z,36.03
2022-10-17T23:52:34.081Z,34.37
2022-10-17T23:57:26.595Z,36.13
